Time;durP1;ratioP1;P1;durP2;ratioP2;P2;SDS_P1;SDS_P2;PMS_P1;PMS_P2;Temp;Humidity;BMP_temperature;BMP_pressure;BME280_temperature;BME280_humidity;BME280_pressure;Samples;Min_cycle;Max_cycle;Signal;HPM_P1;HPM_P2
2021/06/08 00:01:13;;;;;;;2.63;2.15;;;17.80;59.50;;;;;;5034870;28;20028;-92
2021/06/08 00:03:39;;;;;;;2.53;2.25;;;17.70;59.60;;;;;;5053055;28;20659;-91
2021/06/08 00:06:05;;;;;;;2.53;2.13;;;17.70;59.80;;;;;;5017677;28;20116;-91
2021/06/08 00:08:30;;;;;;;2.22;1.98;;;17.70;59.80;;;;;;5013026;28;20025;-93
2021/06/08 00:10:56;;;;;;;3.35;2.50;;;17.70;59.80;;;;;;5017334;28;20069;-92
2021/06/08 00:13:21;;;;;;;3.22;2.42;;;17.60;59.80;;;;;;5032699;28;20096;-91
2021/06/08 00:15:47;;;;;;;2.58;2.10;;;17.60;60.10;;;;;;5034563;28;20648;-91
2021/06/08 00:18:13;;;;;;;3.25;2.47;;;17.50;60.20;;;;;;5034851;28;20065;-90
2021/06/08 00:20:38;;;;;;;3.78;3.00;;;17.60;60.40;;;;;;5037995;28;20395;-92
2021/06/08 00:23:04;;;;;;;3.38;2.60;;;17.50;60.60;;;;;;5040092;28;20017;-91
2021/06/08 00:25:30;;;;;;;3.63;2.80;;;17.50;60.70;;;;;;5037296;28;20361;-90
2021/06/08 00:27:57;;;;;;;3.13;2.53;;;17.40;60.90;;;;;;5034384;28;20021;-92
2021/06/08 00:30:23;;;;;;;3.40;2.80;;;17.40;60.90;;;;;;5034603;28;20056;-91
2021/06/08 00:32:49;;;;;;;3.42;2.83;;;17.40;61.10;;;;;;5038838;28;20053;-88
2021/06/08 00:35:14;;;;;;;4.03;2.80;;;17.40;61.10;;;;;;5053467;28;20052;-90
2021/06/08 00:37:40;;;;;;;3.22;2.30;;;17.40;61.10;;;;;;5025146;28;20032;-90
2021/06/08 00:40:07;;;;;;;2.70;2.50;;;17.30;61.00;;;;;;5029435;28;20472;-90
2021/06/08 00:42:35;;;;;;;4.10;2.60;;;17.30;61.50;;;;;;5032095;28;20030;-89
2021/06/08 00:45:01;;;;;;;3.60;2.92;;;17.30;61.50;;;;;;5041810;28;20079;-90
2021/06/08 00:47:27;;;;;;;5.25;2.85;;;17.20;61.60;;;;;;5033270;28;20027;-89
2021/06/08 00:49:52;;;;;;;3.25;2.60;;;17.20;61.60;;;;;;5035835;28;20108;-89
2021/06/08 00:52:18;;;;;;;2.75;2.42;;;17.10;61.80;;;;;;5018388;28;20037;-91
2021/06/08 00:54:44;;;;;;;3.08;2.78;;;17.00;61.90;;;;;;5039844;28;20033;-90
2021/06/08 00:57:10;;;;;;;3.92;3.08;;;17.00;62.10;;;;;;5053780;28;20171;-90
2021/06/08 00:59:36;;;;;;;4.15;3.20;;;17.00;62.20;;;;;;5048848;28;20014;-90
2021/06/08 01:02:02;;;;;;;2.92;2.63;;;16.90;62.40;;;;;;5041863;28;20031;-90
2021/06/08 01:04:28;;;;;;;4.10;3.15;;;16.90;62.50;;;;;;5051049;28;20017;-90
2021/06/08 01:06:53;;;;;;;3.90;3.00;;;16.90;62.80;;;;;;5053630;28;20037;-90
2021/06/08 01:09:19;;;;;;;3.88;3.30;;;16.90;62.80;;;;;;5034119;28;20124;-91
2021/06/08 01:11:44;;;;;;;4.13;3.40;;;16.80;62.90;;;;;;5039543;28;20467;-89
2021/06/08 01:14:10;;;;;;;3.10;2.58;;;16.80;63.50;;;;;;5050368;28;20025;-92
2021/06/08 01:16:36;;;;;;;4.70;2.80;;;16.80;63.40;;;;;;5048941;28;20127;-90
2021/06/08 01:19:02;;;;;;;4.10;2.40;;;16.80;63.30;;;;;;5033233;28;20487;-92
2021/06/08 01:21:28;;;;;;;3.10;2.80;;;16.80;63.30;;;;;;5034415;28;20049;-92
2021/06/08 01:23:55;;;;;;;3.50;3.10;;;16.80;63.20;;;;;;5053810;28;20336;-90
2021/06/08 01:26:27;;;;;;;3.80;3.20;;;16.70;63.50;;;;;;5040351;28;20119;-91
2021/06/08 01:28:56;;;;;;;4.28;3.85;;;16.70;63.60;;;;;;5015544;28;20029;-91
2021/06/08 01:31:23;;;;;;;4.40;3.83;;;16.60;63.90;;;;;;5032863;28;20140;-91
2021/06/08 01:33:49;;;;;;;4.80;3.83;;;16.50;64.30;;;;;;5019099;28;20029;-91
2021/06/08 01:36:18;;;;;;;3.53;3.10;;;16.50;64.70;;;;;;5013933;28;20131;-92
2021/06/08 01:38:45;;;;;;;4.82;3.30;;;16.50;64.60;;;;;;5013278;28;20381;-91
2021/06/08 01:41:14;;;;;;;4.18;2.85;;;16.50;64.70;;;;;;5024030;28;20017;-92
2021/06/08 01:43:44;;;;;;;3.10;2.80;;;16.40;64.60;;;;;;5033141;28;20105;-91
2021/06/08 01:46:10;;;;;;;4.65;3.78;;;16.40;64.60;;;;;;5033451;28;20465;-91
2021/06/08 01:48:37;;;;;;;3.40;3.10;;;16.40;64.70;;;;;;4999212;28;20029;-91
2021/06/08 01:51:20;;;;;;;4.80;3.97;;;16.30;64.80;;;;;;5013123;28;20300;-93
2021/06/08 01:54:08;;;;;;;5.13;3.72;;;16.30;65.00;;;;;;5013164;28;20498;-92
2021/06/08 01:56:37;;;;;;;4.25;3.63;;;16.20;65.10;;;;;;4996078;28;20129;-92
2021/06/08 01:59:11;;;;;;;3.97;3.58;;;16.20;65.30;;;;;;5013238;28;20022;-91
2021/06/08 02:02:04;;;;;;;3.78;3.35;;;16.20;65.40;;;;;;5014713;28;20061;-91
2021/06/08 02:04:45;;;;;;;4.22;3.72;;;16.10;65.40;;;;;;5030958;28;21272;-90
2021/06/08 02:07:30;;;;;;;4.55;3.92;;;16.10;65.50;;;;;;5011098;28;20670;-91
2021/06/08 02:10:14;;;;;;;5.00;3.83;;;16.10;65.60;;;;;;5021152;28;20025;-92
2021/06/08 02:12:42;;;;;;;4.90;3.70;;;16.10;65.70;;;;;;5014774;28;20037;-91
2021/06/08 02:15:11;;;;;;;4.78;4.13;;;16.10;65.80;;;;;;5013935;28;20088;-90
2021/06/08 02:17:44;;;;;;;3.75;3.28;;;16.10;65.70;;;;;;5007818;28;20046;-90
2021/06/08 02:20:33;;;;;;;5.85;4.47;;;16.10;65.80;;;;;;5027308;28;20033;-90
2021/06/08 02:23:02;;;;;;;7.15;5.60;;;16.10;66.00;;;;;;5024309;28;20030;-88
2021/06/08 02:25:30;;;;;;;6.65;4.32;;;16.00;66.80;;;;;;5014182;28;20017;-90
2021/06/08 02:27:58;;;;;;;5.47;4.88;;;16.00;66.70;;;;;;5004370;28;20013;-89
2021/06/08 02:30:25;;;;;;;5.05;3.65;;;16.00;66.80;;;;;;5013894;28;20104;-89
2021/06/08 02:32:52;;;;;;;6.28;4.80;;;16.00;66.80;;;;;;5014081;28;20124;-90
2021/06/08 02:35:23;;;;;;;4.72;4.22;;;15.90;66.80;;;;;;5025943;28;20018;-89
2021/06/08 02:37:50;;;;;;;5.13;4.32;;;15.90;66.80;;;;;;5011408;28;20208;-88
2021/06/08 02:40:17;;;;;;;4.82;4.28;;;15.90;66.80;;;;;;5021696;28;20033;-87
2021/06/08 02:42:44;;;;;;;5.78;4.53;;;15.90;67.50;;;;;;5013836;28;20487;-89
2021/06/08 02:45:11;;;;;;;5.53;4.93;;;15.90;67.60;;;;;;5031673;28;20024;-90
2021/06/08 02:47:37;;;;;;;5.75;4.90;;;15.90;67.50;;;;;;5013350;28;20033;-88
2021/06/08 02:50:08;;;;;;;5.40;4.63;;;15.90;67.50;;;;;;5016186;28;20030;-89
2021/06/08 02:52:35;;;;;;;5.00;4.45;;;15.90;67.30;;;;;;5011515;28;20119;-90
2021/06/08 02:55:01;;;;;;;6.00;4.18;;;15.90;67.20;;;;;;5026794;28;20139;-91
2021/06/08 02:57:27;;;;;;;5.18;4.38;;;15.90;67.10;;;;;;5014204;28;20021;-91
2021/06/08 03:00:01;;;;;;;4.47;3.90;;;15.90;67.00;;;;;;5014277;28;20107;-91
2021/06/08 03:02:28;;;;;;;4.50;3.83;;;15.90;66.80;;;;;;5014535;28;20446;-90
2021/06/08 03:05:14;;;;;;;4.75;4.22;;;15.90;66.80;;;;;;5014316;28;20065;-90
2021/06/08 03:07:44;;;;;;;5.13;4.28;;;15.90;66.90;;;;;;5020433;28;20025;-91
2021/06/08 03:10:13;;;;;;;4.93;4.05;;;15.90;66.80;;;;;;5028760;28;20037;-90
2021/06/08 03:12:56;;;;;;;5.55;3.83;;;15.90;66.80;;;;;;4988096;28;20143;-92
2021/06/08 03:15:27;;;;;;;5.18;4.57;;;15.90;66.80;;;;;;5018411;28;20148;-93
2021/06/08 03:17:53;;;;;;;6.28;4.10;;;15.80;66.70;;;;;;5010576;28;20480;-92
2021/06/08 03:20:28;;;;;;;5.50;3.90;;;15.90;66.70;;;;;;5030948;28;20107;-92
2021/06/08 03:22:58;;;;;;;4.47;3.50;;;15.90;66.70;;;;;;5032082;28;20368;-92
2021/06/08 03:25:25;;;;;;;5.85;4.43;;;15.90;66.70;;;;;;5006326;28;20030;-92
2021/06/08 03:27:53;;;;;;;4.90;3.97;;;15.90;66.60;;;;;;5011011;28;20088;-92
2021/06/08 03:30:25;;;;;;;6.82;4.30;;;15.90;66.60;;;;;;5032103;28;20049;-91
2021/06/08 03:32:52;;;;;;;5.20;3.92;;;15.80;66.60;;;;;;5005058;28;20026;-91
2021/06/08 03:35:23;;;;;;;4.28;3.88;;;15.80;66.50;;;;;;5011954;28;20091;-92
2021/06/08 03:37:50;;;;;;;5.32;4.25;;;15.80;66.50;;;;;;4994388;28;20030;-91
2021/06/08 03:40:17;;;;;;;6.72;4.57;;;15.80;66.50;;;;;;5011773;28;20477;-91
2021/06/08 03:42:43;;;;;;;4.63;3.72;;;15.80;66.50;;;;;;5018604;28;20651;-90
2021/06/08 03:45:11;;;;;;;5.78;4.60;;;15.80;66.50;;;;;;5031055;28;20022;-90
2021/06/08 03:47:37;;;;;;;5.88;4.93;;;15.80;66.60;;;;;;5012680;28;20590;-89
2021/06/08 03:50:07;;;;;;;7.03;5.10;;;15.70;66.70;;;;;;5039374;28;20112;-90
2021/06/08 03:52:32;;;;;;;6.15;4.93;;;15.70;66.80;;;;;;5031305;28;20037;-93
2021/06/08 03:54:58;;;;;;;7.30;6.18;;;15.70;66.90;;;;;;5014063;28;20083;-93
2021/06/08 03:57:28;;;;;;;6.93;5.47;;;15.70;67.10;;;;;;5031760;28;20100;-92
2021/06/08 03:59:56;;;;;;;6.10;4.65;;;15.70;67.20;;;;;;5014631;28;20056;-93
2021/06/08 04:02:22;;;;;;;5.38;4.53;;;15.70;67.30;;;;;;5033644;28;20025;-91
2021/06/08 04:04:49;;;;;;;6.55;5.53;;;15.70;67.30;;;;;;5031603;28;20018;-93
2021/06/08 04:07:18;;;;;;;6.30;5.25;;;15.70;67.70;;;;;;5014007;28;20032;-91
2021/06/08 04:09:47;;;;;;;5.47;4.70;;;15.70;67.60;;;;;;5011424;28;20022;-92
2021/06/08 04:12:13;;;;;;;4.95;4.13;;;15.80;67.50;;;;;;5014277;28;20048;-88
2021/06/08 04:14:40;;;;;;;7.28;4.80;;;15.80;67.30;;;;;;4997006;28;20026;-89
2021/06/08 04:17:05;;;;;;;7.47;5.53;;;15.80;67.40;;;;;;5014301;28;20656;-88
2021/06/08 04:19:31;;;;;;;6.55;4.95;;;15.80;67.30;;;;;;5026575;28;20029;-88
2021/06/08 04:21:57;;;;;;;7.43;5.60;;;15.90;67.20;;;;;;5033793;28;20017;-88
2021/06/08 04:24:23;;;;;;;5.53;4.75;;;15.90;67.20;;;;;;5017761;28;20045;-88
2021/06/08 04:26:48;;;;;;;6.13;4.00;;;15.90;67.20;;;;;;5006263;28;20464;-88
2021/06/08 04:29:14;;;;;;;6.07;4.95;;;15.90;66.90;;;;;;5020043;28;20476;-89
2021/06/08 04:31:40;;;;;;;6.40;4.50;;;15.90;66.80;;;;;;5014147;28;20052;-89
2021/06/08 04:34:06;;;;;;;5.25;3.88;;;15.90;66.80;;;;;;5008402;28;20029;-92
2021/06/08 04:36:32;;;;;;;5.05;3.50;;;16.00;66.70;;;;;;5034829;28;20029;-91
2021/06/08 04:38:57;;;;;;;4.78;3.05;;;16.10;66.40;;;;;;5016488;28;20071;-91
2021/06/08 04:41:25;;;;;;;4.97;3.35;;;16.20;66.30;;;;;;5034969;28;20041;-91
2021/06/08 04:43:51;;;;;;;4.22;3.22;;;16.20;66.10;;;;;;5016879;28;20017;-91
2021/06/08 04:46:16;;;;;;;2.70;2.20;;;16.30;65.90;;;;;;5034371;28;20028;-92
2021/06/08 04:48:43;;;;;;;3.05;2.67;;;16.40;65.50;;;;;;5034250;28;20025;-90
2021/06/08 04:51:09;;;;;;;4.30;3.20;;;16.50;65.40;;;;;;5016094;28;20082;-89
2021/06/08 04:53:35;;;;;;;3.15;2.45;;;16.80;64.70;;;;;;5033315;28;20053;-89
2021/06/08 04:56:01;;;;;;;3.05;2.25;;;17.60;63.20;;;;;;5016053;28;20045;-90
2021/06/08 04:58:26;;;;;;;3.60;2.28;;;18.10;61.40;;;;;;5030391;28;20026;-90
2021/06/08 05:01:08;;;;;;;3.28;1.83;;;18.70;60.00;;;;;;5004093;28;20025;-89
2021/06/08 05:03:41;;;;;;;2.40;2.20;;;19.20;58.50;;;;;;5031819;28;20022;-89
2021/06/08 05:06:15;;;;;;;2.42;1.85;;;19.60;57.00;;;;;;5032228;28;20025;-88
2021/06/08 05:08:50;;;;;;;1.88;1.60;;;20.00;56.20;;;;;;5032413;28;20038;-88
2021/06/08 05:11:26;;;;;;;4.03;2.28;;;20.20;55.20;;;;;;5032646;28;20540;-89
2021/06/08 05:13:54;;;;;;;1.65;1.40;;;20.40;54.20;;;;;;5031701;28;20461;-89
2021/06/08 05:16:20;;;;;;;2.80;1.75;;;20.70;54.00;;;;;;5017094;28;20025;-88
2021/06/08 05:18:51;;;;;;;3.33;1.77;;;20.90;53.40;;;;;;5030602;28;20022;-86
2021/06/08 05:21:18;;;;;;;2.72;1.60;;;21.10;52.80;;;;;;5035805;28;20028;-85
2021/06/08 05:23:44;;;;;;;1.73;1.30;;;21.30;52.50;;;;;;5037928;28;20040;-85
2021/06/08 05:26:11;;;;;;;2.30;1.42;;;21.60;52.20;;;;;;5035614;28;20026;-88
2021/06/08 05:28:41;;;;;;;1.33;1.10;;;22.00;52.00;;;;;;5035706;28;20072;-90
2021/06/08 05:31:08;;;;;;;2.25;1.50;;;22.30;50.90;;;;;;5009933;28;20538;-88
2021/06/08 05:33:33;;;;;;;2.20;1.48;;;22.50;50.50;;;;;;5045634;28;20718;-86
2021/06/08 05:35:59;;;;;;;1.98;1.30;;;22.60;49.40;;;;;;5031774;28;20037;-94
2021/06/08 05:38:33;;;;;;;1.30;0.90;;;22.40;50.00;;;;;;5035844;28;20049;-91
2021/06/08 05:41:10;;;;;;;1.38;0.77;;;22.70;50.30;;;;;;5024918;28;20017;-95
2021/06/08 05:43:40;;;;;;;1.85;1.20;;;22.90;49.80;;;;;;5035144;28;20075;-96
2021/06/08 05:46:09;;;;;;;1.58;1.25;;;22.60;49.40;;;;;;5029234;28;20468;-94
2021/06/08 05:48:36;;;;;;;2.33;1.30;;;22.40;49.40;;;;;;5015493;28;20041;-87
2021/06/08 05:51:03;;;;;;;1.17;0.82;;;22.40;49.70;;;;;;4998773;28;20037;-92
2021/06/08 05:53:30;;;;;;;3.83;1.77;;;22.50;50.20;;;;;;5033429;28;20057;-96
2021/06/08 05:55:57;;;;;;;2.78;1.70;;;22.50;50.40;;;;;;5044008;28;20503;-90
2021/06/08 05:58:30;;;;;;;2.08;1.88;;;22.50;51.00;;;;;;4998003;28;20125;-86
2021/06/08 06:00:57;;;;;;;2.75;1.75;;;22.50;51.30;;;;;;5032170;28;20025;-87
2021/06/08 06:03:24;;;;;;;1.60;1.42;;;22.40;51.50;;;;;;5007880;28;20146;-89
2021/06/08 06:05:58;;;;;;;2.85;1.95;;;22.40;51.70;;;;;;5026392;28;20029;-89
2021/06/08 06:08:27;;;;;;;2.08;1.50;;;22.30;51.80;;;;;;5003694;28;20061;-89
2021/06/08 06:10:53;;;;;;;1.92;1.30;;;22.20;51.80;;;;;;5001627;28;20040;-87
2021/06/08 06:13:24;;;;;;;1.30;1.20;;;22.20;52.00;;;;;;5013707;28;20061;-85
2021/06/08 06:15:51;;;;;;;1.73;1.00;;;22.20;51.70;;;;;;5024475;28;20033;-87
2021/06/08 06:18:19;;;;;;;1.27;1.10;;;22.20;51.60;;;;;;5022609;28;20205;-87
2021/06/08 06:20:51;;;;;;;1.33;1.10;;;22.10;51.10;;;;;;5020906;28;20033;-87
2021/06/08 06:23:21;;;;;;;1.42;1.20;;;22.20;51.20;;;;;;5028230;28;20071;-87
2021/06/08 06:25:48;;;;;;;1.33;1.20;;;22.20;51.20;;;;;;5029429;28;20036;-84
2021/06/08 06:28:15;;;;;;;2.67;1.40;;;22.30;51.20;;;;;;5023597;28;20423;-85
2021/06/08 06:30:42;;;;;;;1.27;1.10;;;22.30;51.00;;;;;;5024995;28;20025;-84
2021/06/08 06:33:08;;;;;;;1.65;1.17;;;22.40;50.80;;;;;;5019022;28;20029;-83
2021/06/08 06:35:34;;;;;;;1.35;0.90;;;22.50;50.40;;;;;;5021274;28;20022;-84
2021/06/08 06:38:02;;;;;;;0.82;0.80;;;22.60;50.20;;;;;;5021687;28;20025;-84
2021/06/08 06:40:30;;;;;;;0.93;0.90;;;22.70;50.00;;;;;;5018915;28;20478;-84
2021/06/08 06:43:01;;;;;;;1.42;1.05;;;22.70;49.60;;;;;;5028557;28;20022;-84
2021/06/08 06:45:27;;;;;;;2.30;1.13;;;22.90;49.30;;;;;;5000824;28;20448;-84
2021/06/08 06:48:01;;;;;;;1.55;1.15;;;23.00;48.70;;;;;;5009131;28;20037;-89
2021/06/08 06:50:27;;;;;;;1.15;1.00;;;23.10;48.50;;;;;;5000600;28;20056;-89
2021/06/08 06:52:56;;;;;;;1.92;1.20;;;23.10;48.20;;;;;;5014943;28;20041;-91
2021/06/08 06:55:22;;;;;;;1.70;1.10;;;23.20;48.20;;;;;;5025027;28;20028;-85
2021/06/08 06:57:50;;;;;;;1.95;1.38;;;23.20;48.60;;;;;;5003891;28;20029;-87
2021/06/08 07:00:16;;;;;;;2.05;1.45;;;23.30;47.60;;;;;;5033999;28;20032;-88
2021/06/08 07:02:45;;;;;;;2.05;1.20;;;23.30;47.30;;;;;;5012699;28;20022;-88
2021/06/08 07:05:13;;;;;;;1.85;1.30;;;23.30;47.20;;;;;;5030731;28;20471;-88
2021/06/08 07:07:40;;;;;;;1.55;1.20;;;23.30;47.20;;;;;;5005671;28;20029;-89
2021/06/08 07:10:09;;;;;;;1.20;1.10;;;23.40;47.10;;;;;;5013223;28;20116;-88
2021/06/08 07:12:35;;;;;;;1.25;1.10;;;23.50;46.80;;;;;;5018630;28;20060;-88
2021/06/08 07:15:01;;;;;;;1.77;1.30;;;23.60;46.80;;;;;;5028131;28;20457;-87
2021/06/08 07:17:26;;;;;;;1.67;1.38;;;23.60;46.50;;;;;;5029168;28;20033;-88
2021/06/08 07:19:55;;;;;;;1.92;1.58;;;23.70;46.70;;;;;;5027396;28;20048;-88
2021/06/08 07:22:22;;;;;;;1.50;1.40;;;23.70;46.60;;;;;;5025435;28;20026;-86
2021/06/08 07:24:48;;;;;;;1.95;1.40;;;23.60;46.50;;;;;;5034187;28;20119;-88
2021/06/08 07:27:14;;;;;;;1.67;1.25;;;23.40;46.30;;;;;;5020754;28;20097;-89
2021/06/08 07:29:41;;;;;;;1.30;1.20;;;23.50;46.80;;;;;;5026016;28;20037;-87
2021/06/08 07:32:17;;;;;;;2.42;1.40;;;23.50;46.90;;;;;;5027738;28;20042;-88
2021/06/08 07:35:20;;;;;;;1.50;1.40;;;23.70;46.80;;;;;;5031316;28;20057;-89
2021/06/08 07:37:49;;;;;;;;;;;23.80;46.80;;;;;;5027926;28;20055;-88
2021/06/08 07:40:22;;;;;;;2.20;1.20;;;23.80;46.50;;;;;;5016606;28;19916;-89
2021/06/08 07:43:01;;;;;;;1.50;1.40;;;23.90;46.40;;;;;;4999301;28;20022;-86
2021/06/08 07:45:39;;;;;;;1.95;1.30;;;24.10;46.40;;;;;;5042211;28;20111;-89
2021/06/08 07:48:09;;;;;;;1.15;1.00;;;24.30;46.10;;;;;;5037005;28;20037;-89
2021/06/08 07:50:38;;;;;;;1.40;1.30;;;24.40;46.10;;;;;;5019379;28;20022;-90
2021/06/08 07:53:05;;;;;;;2.45;1.30;;;24.40;45.80;;;;;;5038431;28;21438;-89
2021/06/08 07:55:31;;;;;;;1.30;1.15;;;24.50;45.80;;;;;;5041969;28;20022;-90
2021/06/08 07:57:58;;;;;;;1.77;1.10;;;24.60;45.70;;;;;;5047434;28;20082;-89
2021/06/08 08:00:24;;;;;;;1.77;1.35;;;24.70;45.60;;;;;;5017660;28;20025;-88
2021/06/08 08:02:53;;;;;;;1.80;1.30;;;24.60;45.50;;;;;;5038515;28;20025;-90
2021/06/08 08:05:22;;;;;;;1.92;1.42;;;24.70;45.40;;;;;;5038550;28;20405;-89
2021/06/08 08:07:50;;;;;;;2.15;1.35;;;24.80;45.10;;;;;;5046791;28;20026;-86
2021/06/08 08:10:23;;;;;;;2.05;1.50;;;24.90;45.20;;;;;;5044658;28;20022;-87
2021/06/08 08:12:49;;;;;;;2.20;1.27;;;25.00;45.20;;;;;;5038308;28;20045;-87
2021/06/08 08:15:16;;;;;;;1.42;1.17;;;25.10;45.10;;;;;;5027619;28;20018;-86
2021/06/08 08:17:43;;;;;;;2.28;1.73;;;25.10;45.00;;;;;;5045316;28;20112;-86
2021/06/08 08:20:10;;;;;;;2.42;1.40;;;25.00;44.70;;;;;;5047326;28;20025;-86
2021/06/08 08:22:36;;;;;;;1.33;1.23;;;24.80;45.10;;;;;;5028105;28;20379;-85
2021/06/08 08:25:02;;;;;;;1.52;1.33;;;24.90;45.40;;;;;;5036644;28;20060;-85
2021/06/08 08:27:27;;;;;;;2.40;1.42;;;25.10;45.30;;;;;;5036619;28;20109;-86
2021/06/08 08:29:53;;;;;;;2.10;1.77;;;25.20;45.00;;;;;;5014684;28;20067;-86
2021/06/08 08:32:19;;;;;;;1.60;1.50;;;25.10;45.00;;;;;;5028003;28;20764;-86
2021/06/08 08:34:45;;;;;;;1.50;1.40;;;25.20;44.90;;;;;;5000661;28;20116;-87
2021/06/08 08:37:11;;;;;;;1.70;1.40;;;25.30;45.10;;;;;;5030486;28;20022;-87
2021/06/08 08:39:37;;;;;;;1.90;1.35;;;25.40;44.90;;;;;;5027945;28;20553;-86
2021/06/08 08:42:05;;;;;;;1.77;1.50;;;25.50;44.90;;;;;;5026658;28;20038;-87
2021/06/08 08:44:31;;;;;;;1.38;1.13;;;25.70;44.80;;;;;;5024881;28;20068;-88
2021/06/08 08:46:58;;;;;;;2.13;1.55;;;25.70;44.70;;;;;;5030498;28;20045;-88
2021/06/08 08:49:26;;;;;;;1.95;1.58;;;25.40;44.50;;;;;;5023831;28;20026;-87
2021/06/08 08:51:53;;;;;;;1.55;1.45;;;25.20;45.10;;;;;;5020200;28;20499;-86
2021/06/08 08:54:20;;;;;;;2.13;1.92;;;25.30;45.30;;;;;;5023758;28;20537;-88
2021/06/08 08:56:47;;;;;;;1.88;1.73;;;25.30;44.90;;;;;;4996239;28;20571;-86
2021/06/08 08:59:16;;;;;;;2.33;2.13;;;25.40;45.20;;;;;;5030981;28;20497;-86
2021/06/08 09:01:45;;;;;;;1.63;1.52;;;25.30;44.60;;;;;;5018654;28;20022;-86
2021/06/08 09:04:11;;;;;;;3.25;1.70;;;25.20;45.20;;;;;;5024374;28;20038;-87
2021/06/08 09:06:37;;;;;;;2.65;2.22;;;25.20;44.80;;;;;;5000656;28;20051;-86
2021/06/08 09:09:05;;;;;;;2.10;1.90;;;24.90;44.60;;;;;;5035462;28;20100;-88
2021/06/08 09:11:35;;;;;;;1.67;1.55;;;24.80;45.20;;;;;;5037186;28;20626;-87
2021/06/08 09:14:01;;;;;;;1.33;1.23;;;24.90;45.50;;;;;;5019082;28;20036;-87
2021/06/08 09:16:28;;;;;;;2.05;1.88;;;25.10;45.60;;;;;;5029613;28;20096;-87
2021/06/08 09:18:54;;;;;;;1.95;1.60;;;24.90;45.90;;;;;;5025123;28;20669;-89
2021/06/08 09:21:25;;;;;;;2.17;1.83;;;25.00;45.50;;;;;;5007143;28;20468;-86
2021/06/08 09:23:51;;;;;;;2.05;1.70;;;25.20;45.70;;;;;;5024915;28;20022;-86
2021/06/08 09:26:18;;;;;;;3.28;2.50;;;25.30;45.80;;;;;;5031342;28;20029;-88
2021/06/08 09:28:45;;;;;;;3.00;2.70;;;25.30;45.60;;;;;;5023976;28;20080;-86
2021/06/08 09:31:10;;;;;;;4.32;3.28;;;25.40;45.20;;;;;;5029695;28;20036;-87
2021/06/08 09:33:48;;;;;;;3.30;1.80;;;25.40;45.20;;;;;;5030511;28;20108;-87
2021/06/08 09:36:16;;;;;;;3.50;2.40;;;25.40;45.70;;;;;;5010969;28;20026;-87
2021/06/08 09:38:51;;;;;;;1.63;1.52;;;25.40;45.70;;;;;;5010449;28;20503;-87
2021/06/08 09:41:22;;;;;;;2.15;1.60;;;25.60;46.10;;;;;;5020967;28;20018;-86
2021/06/08 09:43:48;;;;;;;2.92;1.92;;;25.70;45.70;;;;;;5021189;28;20463;-85
2021/06/08 09:46:14;;;;;;;2.70;1.85;;;25.90;45.10;;;;;;5030976;28;20120;-84
2021/06/08 09:48:54;;;;;;;2.05;1.80;;;26.20;44.60;;;;;;5021204;28;20030;-85
2021/06/08 09:51:21;;;;;;;3.25;2.72;;;26.30;44.70;;;;;;5012303;28;20144;-86
2021/06/08 09:53:47;;;;;;;4.85;3.53;;;26.30;44.40;;;;;;5021556;28;20037;-85
2021/06/08 09:56:14;;;;;;;2.80;2.55;;;25.80;44.20;;;;;;5011141;28;20029;-86
2021/06/08 09:58:48;;;;;;;3.40;2.63;;;25.50;45.10;;;;;;5022431;28;20128;-88
2021/06/08 10:01:15;;;;;;;2.13;1.80;;;25.50;45.50;;;;;;5010258;28;20021;-87
2021/06/08 10:03:51;;;;;;;2.10;1.70;;;25.60;45.60;;;;;;5029828;28;20632;-87
2021/06/08 10:06:26;;;;;;;2.05;1.80;;;25.50;45.40;;;;;;5007814;28;20036;-86
2021/06/08 10:08:56;;;;;;;3.28;2.92;;;25.60;45.60;;;;;;5025655;28;20052;-87
2021/06/08 10:11:24;;;;;;;3.25;2.60;;;25.60;45.10;;;;;;5030017;28;20377;-87
2021/06/08 10:13:57;;;;;;;3.00;2.72;;;25.50;45.50;;;;;;5004378;28;20338;-84
2021/06/08 10:16:31;;;;;;;3.00;2.70;;;25.40;45.60;;;;;;5029894;28;20025;-86
2021/06/08 10:18:57;;;;;;;3.10;2.40;;;25.40;45.40;;;;;;5012078;28;20132;-87
2021/06/08 10:21:56;;;;;;;3.38;2.35;;;25.40;45.20;;;;;;5023764;28;20037;-87
2021/06/08 10:24:24;;;;;;;2.40;2.20;;;25.30;45.50;;;;;;4981989;28;20030;-86
2021/06/08 10:26:52;;;;;;;3.25;2.10;;;25.40;45.50;;;;;;4998559;28;20480;-87
2021/06/08 10:29:23;;;;;;;1.95;1.77;;;25.60;45.50;;;;;;5009426;28;20021;-87
2021/06/08 10:31:50;;;;;;;2.67;2.47;;;25.90;45.30;;;;;;5005321;28;20033;-87
2021/06/08 10:34:15;;;;;;;2.55;2.20;;;25.90;44.90;;;;;;5021515;28;20090;-87
2021/06/08 10:36:43;;;;;;;2.70;2.20;;;26.10;45.10;;;;;;5025523;28;20029;-87
2021/06/08 10:39:12;;;;;;;3.35;2.78;;;26.20;44.90;;;;;;4996209;28;20018;-87
2021/06/08 10:41:41;;;;;;;3.17;2.53;;;26.10;44.20;;;;;;4994811;28;20037;-89
2021/06/08 10:44:07;;;;;;;2.90;2.28;;;26.10;43.90;;;;;;5030890;28;20488;-88
2021/06/08 10:46:44;;;;;;;2.50;2.30;;;26.10;44.20;;;;;;5021163;28;20040;-87
2021/06/08 10:49:10;;;;;;;1.70;1.60;;;26.30;44.20;;;;;;5023557;28;20025;-87
2021/06/08 10:51:37;;;;;;;2.58;2.10;;;26.60;44.30;;;;;;5022466;28;20026;-87
2021/06/08 10:54:16;;;;;;;3.40;2.38;;;26.60;44.10;;;;;;5033032;28;20036;-88
2021/06/08 10:56:57;;;;;;;2.22;2.03;;;26.70;43.90;;;;;;5020639;28;20078;-89
2021/06/08 10:59:35;;;;;;;2.57;2.00;;;26.90;43.60;;;;;;5018637;28;20029;-88
2021/06/08 11:02:01;;;;;;;2.92;2.45;;;27.00;43.70;;;;;;5025313;28;20479;-86
2021/06/08 11:04:53;;;;;;;3.28;2.63;;;26.90;43.20;;;;;;5027139;28;20082;-85
2021/06/08 11:07:43;;;;;;;2.78;1.90;;;27.10;43.40;;;;;;5024684;28;20473;-85
2021/06/08 11:10:32;;;;;;;3.83;2.80;;;26.90;42.50;;;;;;5000504;28;20380;-86
2021/06/08 11:13:07;;;;;;;5.05;3.03;;;26.40;42.80;;;;;;5016987;28;20033;-87
2021/06/08 11:15:34;;;;;;;2.17;1.52;;;26.00;43.50;;;;;;5038041;28;20080;-86
2021/06/08 11:18:00;;;;;;;1.50;1.40;;;26.10;43.30;;;;;;5038677;28;20492;-85
2021/06/08 11:20:27;;;;;;;2.50;2.20;;;26.40;43.00;;;;;;5044005;28;20079;-86
2021/06/08 11:22:58;;;;;;;3.22;2.92;;;26.40;42.50;;;;;;5024425;28;20020;-84
2021/06/08 11:25:51;;;;;;;2.67;2.47;;;26.30;43.10;;;;;;5040496;28;20029;-84
2021/06/08 11:28:18;;;;;;;2.10;1.90;;;26.30;43.50;;;;;;5023358;28;20037;-86
2021/06/08 11:30:57;;;;;;;1.98;1.52;;;26.70;43.00;;;;;;5014923;28;20815;-86
2021/06/08 11:33:34;;;;;;;1.25;1.15;;;26.90;42.70;;;;;;5015735;28;20029;-84
2021/06/08 11:36:02;;;;;;;1.98;1.73;;;27.00;41.60;;;;;;5008980;28;20559;-86
2021/06/08 11:38:33;;;;;;;1.63;1.40;;;26.90;41.80;;;;;;5028942;28;20033;-84
2021/06/08 11:41:04;;;;;;;1.60;1.50;;;26.90;41.90;;;;;;5028347;28;20037;-85
2021/06/08 11:43:30;;;;;;;1.52;1.42;;;27.10;41.60;;;;;;5021920;28;20018;-85
2021/06/08 11:46:03;;;;;;;2.80;2.28;;;27.40;41.20;;;;;;5027381;28;20048;-85
2021/06/08 11:48:36;;;;;;;2.28;1.75;;;27.70;40.10;;;;;;5024488;28;20052;-83
2021/06/08 11:51:15;;;;;;;1.48;1.30;;;27.40;40.10;;;;;;5032309;28;20177;-85
2021/06/08 11:53:57;;;;;;;1.50;1.10;;;27.30;40.10;;;;;;5020200;28;20113;-85
2021/06/08 11:56:44;;;;;;;2.92;2.40;;;27.30;40.10;;;;;;5025909;28;20112;-85
2021/06/08 11:59:11;;;;;;;2.58;2.00;;;27.00;40.60;;;;;;5029125;28;20152;-84
2021/06/08 12:01:42;;;;;;;3.17;2.63;;;27.20;40.70;;;;;;5020959;28;20571;-85
2021/06/08 12:04:08;;;;;;;2.05;1.85;;;27.00;39.90;;;;;;5011241;28;20096;-86
2021/06/08 12:07:09;;;;;;;2.95;2.17;;;27.00;40.10;;;;;;5026238;28;20115;-84
2021/06/08 12:09:47;;;;;;;2.13;1.80;;;27.30;40.30;;;;;;5009729;28;20044;-86
2021/06/08 12:12:15;;;;;;;1.70;1.60;;;27.40;40.40;;;;;;5025273;28;20829;-84
2021/06/08 12:14:53;;;;;;;2.55;2.20;;;27.30;40.40;;;;;;5025711;28;20030;-84
2021/06/08 12:17:20;;;;;;;2.40;2.20;;;27.10;40.20;;;;;;5021589;28;20029;-85
2021/06/08 12:19:46;;;;;;;1.98;1.77;;;27.00;39.80;;;;;;5025858;28;20033;-86
2021/06/08 12:22:20;;;;;;;2.00;1.55;;;27.20;39.90;;;;;;5025404;28;20037;-85
2021/06/08 12:24:59;;;;;;;2.88;2.47;;;27.60;39.90;;;;;;5025503;28;20447;-86
2021/06/08 12:27:44;;;;;;;2.35;2.08;;;27.60;39.90;;;;;;5026843;28;20086;-86
2021/06/08 12:30:31;;;;;;;2.20;2.00;;;27.20;40.10;;;;;;5015080;28;20630;-84
2021/06/08 12:33:03;;;;;;;2.00;1.65;;;27.10;40.10;;;;;;4998828;28;20511;-85
2021/06/08 12:35:38;;;;;;;2.10;1.50;;;27.10;40.20;;;;;;5022128;28;20484;-85
2021/06/08 12:38:22;;;;;;;1.50;1.40;;;27.20;39.90;;;;;;5029209;28;20422;-87
2021/06/08 12:41:09;;;;;;;3.58;2.40;;;27.70;39.10;;;;;;5036059;28;20037;-86
2021/06/08 12:43:50;;;;;;;2.90;2.42;;;28.00;39.20;;;;;;5029331;28;20096;-84
2021/06/08 12:46:31;;;;;;;1.93;1.80;;;27.80;39.80;;;;;;5012559;28;20026;-85
2021/06/08 12:49:14;;;;;;;2.70;2.50;;;28.00;40.20;;;;;;5023746;28;20025;-87
2021/06/08 12:51:44;;;;;;;2.40;2.20;;;27.80;40.30;;;;;;5027318;28;20116;-87
2021/06/08 12:54:34;;;;;;;2.28;2.08;;;27.60;40.60;;;;;;5011036;28;20033;-85
2021/06/08 12:57:04;;;;;;;2.00;1.90;;;27.50;41.10;;;;;;5031508;28;20105;-85
2021/06/08 12:59:48;;;;;;;3.50;2.30;;;27.40;41.60;;;;;;5029300;28;20416;-86
2021/06/08 13:02:15;;;;;;;2.45;2.25;;;27.40;40.70;;;;;;5021709;28;20133;-86